THY6138 HLLM-HECA
Flight info
| Callsign | THY6138 |
|---|---|
| Flight time | 2h 25m |
| Altitude | 41000 |
| Route | MTG P563 LUMED DCT ARLOS UN4 SALUN N705 BOPIX N710 TAKRI M720 CVO |
| Aircraft | A339/H-SADE1E2E3GHIJ3J5M1P2RWXY/LB2D1 |
Departure
| Time | 2026-04-22 19:26 |
|---|---|
| Airport | Mitiga International Airport (HLLM) |
Arrival
| Time | 2026-04-22 21:52 |
|---|---|
| Airport | Cairo International Airport (HECA) |
| Time | Latitude | Longitude | Altitude | Speed | Heading |
|---|---|---|---|---|---|
| 2026-04-22 19:01 | 32.90469 | 13.27807 | 31 ft | 0 kts | 121° |
| 2026-04-22 19:21 | 32.90461 | 13.27823 | 31 ft | 4 kts | 120° |
| 2026-04-22 19:21 | 32.90435 | 13.27856 | 31 ft | 6 kts | 148° |
| 2026-04-22 19:21 | 32.90385 | 13.27853 | 31 ft | 8 kts | 204° |
| 2026-04-22 19:21 | 32.90322 | 13.27821 | 31 ft | 10 kts | 199° |
| 2026-04-22 19:22 | 32.90245 | 13.27794 | 31 ft | 12 kts | 196° |
| 2026-04-22 19:22 | 32.90160 | 13.27765 | 31 ft | 13 kts | 195° |
| 2026-04-22 19:22 | 32.90071 | 13.27733 | 31 ft | 13 kts | 197° |
| 2026-04-22 19:22 | 32.89976 | 13.27690 | 32 ft | 14 kts | 206° |
| 2026-04-22 19:23 | 32.89883 | 13.27635 | 32 ft | 14 kts | 206° |
| 2026-04-22 19:23 | 32.89790 | 13.27578 | 33 ft | 14 kts | 209° |
| 2026-04-22 19:23 | 32.89700 | 13.27518 | 34 ft | 13 kts | 208° |
| 2026-04-22 19:23 | 32.89648 | 13.27432 | 36 ft | 13 kts | 267° |
| 2026-04-22 19:24 | 32.89663 | 13.27321 | 37 ft | 13 kts | 284° |
| 2026-04-22 19:24 | 32.89688 | 13.27212 | 38 ft | 13 kts | 285° |
| 2026-04-22 19:24 | 32.89699 | 13.27121 | 39 ft | 8 kts | 245° |
| 2026-04-22 19:24 | 32.89640 | 13.27087 | 39 ft | 10 kts | 192° |
| 2026-04-22 19:25 | 32.89573 | 13.27089 | 40 ft | 8 kts | 134° |
| 2026-04-22 19:25 | 32.89552 | 13.27143 | 39 ft | 4 kts | 106° |
| 2026-04-22 19:25 | 32.89550 | 13.27149 | 39 ft | 5 kts | 105° |
| 2026-04-22 19:25 | 32.89471 | 13.27491 | 35 ft | 78 kts | 105° |
| 2026-04-22 19:26 | 32.89274 | 13.28358 | 26 ft | 138 kts | 106° |
| 2026-04-22 19:26 | 32.88977 | 13.29581 | 331 ft | 160 kts | 104° |
| 2026-04-22 19:26 | 32.88685 | 13.30859 | 974 ft | 161 kts | 104° |
| 2026-04-22 19:26 | 32.88356 | 13.32067 | 1743 ft | 156 kts | 105° |
| 2026-04-22 19:27 | 32.87990 | 13.33323 | 2246 ft | 167 kts | 106° |
| 2026-04-22 19:27 | 32.87588 | 13.34685 | 2584 ft | 183 kts | 106° |
| 2026-04-22 19:27 | 32.87155 | 13.36154 | 2956 ft | 196 kts | 106° |
| 2026-04-22 19:27 | 32.86492 | 13.37641 | 3290 ft | 218 kts | 131° |
| 2026-04-22 19:28 | 32.85125 | 13.38593 | 3609 ft | 243 kts | 164° |
| 2026-04-22 19:28 | 32.83351 | 13.38578 | 3990 ft | 264 kts | 195° |
| 2026-04-22 19:28 | 32.81743 | 13.37499 | 4568 ft | 274 kts | 224° |
| 2026-04-22 19:28 | 32.80690 | 13.35609 | 5127 ft | 282 kts | 252° |
| 2026-04-22 19:29 | 32.80471 | 13.33333 | 5875 ft | 282 kts | 276° |
| 2026-04-22 19:29 | 32.80776 | 13.31061 | 6713 ft | 280 kts | 282° |
| 2026-04-22 19:29 | 32.81188 | 13.28804 | 7548 ft | 280 kts | 283° |
| 2026-04-22 19:29 | 32.81821 | 13.26658 | 8322 ft | 283 kts | 303° |
| 2026-04-22 19:30 | 32.82725 | 13.25526 | 8841 ft | 286 kts | 324° |
| 2026-04-22 19:30 | 32.85242 | 13.24635 | 9873 ft | 295 kts | 359° |
| 2026-04-22 19:30 | 32.87286 | 13.25158 | 10516 ft | 307 kts | 17° |
| 2026-04-22 19:30 | 32.89340 | 13.26059 | 10914 ft | 324 kts | 18° |
| 2026-04-22 19:31 | 32.91510 | 13.27010 | 11262 ft | 342 kts | 18° |
| 2026-04-22 19:31 | 32.93818 | 13.27996 | 11595 ft | 360 kts | 17° |
| 2026-04-22 19:31 | 32.96262 | 13.29016 | 11903 ft | 379 kts | 17° |
| 2026-04-22 19:31 | 32.98795 | 13.30062 | 12358 ft | 391 kts | 17° |
| 2026-04-22 19:32 | 33.01369 | 13.31119 | 13095 ft | 396 kts | 17° |
| 2026-04-22 19:32 | 33.03970 | 13.32185 | 13861 ft | 398 kts | 17° |
| 2026-04-22 19:32 | 33.06573 | 13.33249 | 14585 ft | 401 kts | 16° |
| 2026-04-22 19:32 | 33.09243 | 13.34339 | 15369 ft | 404 kts | 16° |
| 2026-04-22 19:33 | 33.11922 | 13.35444 | 16145 ft | 408 kts | 18° |
| 2026-04-22 19:33 | 33.14502 | 13.36861 | 16857 ft | 414 kts | 26° |
| 2026-04-22 19:33 | 33.16930 | 13.38747 | 17572 ft | 420 kts | 34° |
| 2026-04-22 19:33 | 33.19162 | 13.40984 | 18257 ft | 425 kts | 39° |
| 2026-04-22 19:34 | 33.21374 | 13.43340 | 18924 ft | 429 kts | 39° |
| 2026-04-22 19:34 | 33.23590 | 13.45726 | 19554 ft | 433 kts | 39° |
| 2026-04-22 19:34 | 33.25859 | 13.48170 | 20180 ft | 438 kts | 39° |
| 2026-04-22 19:34 | 33.28126 | 13.50602 | 20769 ft | 442 kts | 39° |
| 2026-04-22 19:35 | 33.30406 | 13.53041 | 21346 ft | 446 kts | 39° |
| 2026-04-22 19:35 | 33.32720 | 13.55514 | 21904 ft | 450 kts | 39° |
| 2026-04-22 19:35 | 33.35081 | 13.58036 | 22442 ft | 454 kts | 39° |
| 2026-04-22 19:35 | 33.37441 | 13.60559 | 22969 ft | 458 kts | 39° |
| 2026-04-22 19:36 | 33.39815 | 13.63098 | 23476 ft | 462 kts | 38° |
| 2026-04-22 19:36 | 33.42205 | 13.65655 | 23969 ft | 466 kts | 39° |
| 2026-04-22 19:36 | 33.44655 | 13.68277 | 24468 ft | 469 kts | 39° |
| 2026-04-22 19:36 | 33.47090 | 13.70885 | 24942 ft | 472 kts | 39° |
| 2026-04-22 19:37 | 33.49539 | 13.73512 | 25422 ft | 475 kts | 39° |
| 2026-04-22 19:37 | 33.52005 | 13.76160 | 25865 ft | 478 kts | 39° |
| 2026-04-22 19:37 | 33.54464 | 13.78803 | 26288 ft | 482 kts | 39° |
| 2026-04-22 19:37 | 33.56985 | 13.81515 | 26702 ft | 485 kts | 39° |
| 2026-04-22 19:38 | 33.59499 | 13.84220 | 27116 ft | 487 kts | 39° |
| 2026-04-22 19:38 | 33.61991 | 13.86904 | 27526 ft | 490 kts | 39° |
| 2026-04-22 19:38 | 33.64528 | 13.89675 | 27926 ft | 493 kts | 40° |
| 2026-04-22 19:38 | 33.67010 | 13.92511 | 28355 ft | 495 kts | 41° |
| 2026-04-22 19:39 | 33.69471 | 13.95368 | 28912 ft | 493 kts | 41° |
| 2026-04-22 19:39 | 33.71941 | 13.98247 | 29467 ft | 492 kts | 41° |
| 2026-04-22 19:39 | 33.74383 | 14.01088 | 29992 ft | 491 kts | 41° |
| 2026-04-22 19:39 | 33.76008 | 14.02978 | 30329 ft | 490 kts | 41° |
| 2026-04-22 19:40 | 33.79269 | 14.06769 | 30996 ft | 489 kts | 40° |
| 2026-04-22 19:40 | 33.81693 | 14.09584 | 31447 ft | 489 kts | 40° |
| 2026-04-22 19:40 | 33.84131 | 14.12417 | 31860 ft | 489 kts | 40° |
| 2026-04-22 19:40 | 33.86565 | 14.15245 | 32288 ft | 489 kts | 40° |
| 2026-04-22 19:41 | 33.89015 | 14.18094 | 32712 ft | 489 kts | 40° |
| 2026-04-22 19:41 | 33.91463 | 14.20944 | 33107 ft | 489 kts | 40° |
| 2026-04-22 19:41 | 33.93910 | 14.23792 | 33488 ft | 490 kts | 39° |
| 2026-04-22 19:41 | 33.96346 | 14.26631 | 33868 ft | 490 kts | 39° |
| 2026-04-22 19:42 | 33.98797 | 14.29489 | 34262 ft | 490 kts | 39° |
| 2026-04-22 19:42 | 34.01221 | 14.32317 | 34696 ft | 490 kts | 39° |
| 2026-04-22 19:42 | 34.03662 | 14.35166 | 35163 ft | 489 kts | 39° |
| 2026-04-22 19:42 | 34.06111 | 14.38030 | 35635 ft | 488 kts | 39° |
| 2026-04-22 19:43 | 34.10939 | 14.43685 | 36539 ft | 485 kts | 39° |
| 2026-04-22 19:43 | 34.13353 | 14.46514 | 36955 ft | 484 kts | 39° |
| 2026-04-22 19:43 | 34.15757 | 14.49335 | 37324 ft | 484 kts | 39° |
| 2026-04-22 19:44 | 34.18161 | 14.52160 | 37652 ft | 484 kts | 39° |
| 2026-04-22 19:44 | 34.20586 | 14.55012 | 37974 ft | 485 kts | 39° |
| 2026-04-22 19:44 | 34.22996 | 14.57849 | 38301 ft | 485 kts | 39° |
| 2026-04-22 19:44 | 34.25388 | 14.60666 | 38591 ft | 485 kts | 39° |
| 2026-04-22 19:45 | 34.27723 | 14.63602 | 38885 ft | 489 kts | 45° |
| 2026-04-22 19:45 | 34.29795 | 14.66893 | 39141 ft | 493 kts | 53° |
| 2026-04-22 19:45 | 34.31512 | 14.70467 | 39336 ft | 498 kts | 61° |
| 2026-04-22 19:45 | 34.32876 | 14.74377 | 39537 ft | 503 kts | 69° |
| 2026-04-22 19:46 | 34.33806 | 14.78392 | 39719 ft | 506 kts | 77° |
| 2026-04-22 19:46 | 34.34327 | 14.82596 | 39916 ft | 508 kts | 83° |
| 2026-04-22 19:46 | 34.34621 | 14.86838 | 40111 ft | 509 kts | 85° |
| 2026-04-22 19:46 | 34.34869 | 14.91112 | 40285 ft | 511 kts | 85° |
| 2026-04-22 19:47 | 34.35118 | 14.95423 | 40434 ft | 512 kts | 85° |
| 2026-04-22 19:47 | 34.35372 | 14.99685 | 40571 ft | 513 kts | 85° |
| 2026-04-22 19:47 | 34.35639 | 15.03949 | 40722 ft | 513 kts | 84° |
| 2026-04-22 19:47 | 34.35915 | 15.08284 | 40883 ft | 513 kts | 84° |
| 2026-04-22 19:48 | 34.36472 | 15.16880 | 40941 ft | 516 kts | 84° |
| 2026-04-22 19:48 | 34.37034 | 15.25520 | 40942 ft | 516 kts | 84° |
| 2026-04-22 19:49 | 34.37587 | 15.34111 | 40940 ft | 517 kts | 84° |
| 2026-04-22 19:49 | 34.38137 | 15.42762 | 40943 ft | 516 kts | 84° |
| 2026-04-22 19:50 | 34.38680 | 15.51393 | 40943 ft | 516 kts | 84° |
| 2026-04-22 19:50 | 34.39217 | 15.60028 | 40942 ft | 516 kts | 84° |
| 2026-04-22 19:51 | 34.39749 | 15.68671 | 40938 ft | 516 kts | 84° |
| 2026-04-22 19:51 | 34.40274 | 15.77316 | 40938 ft | 517 kts | 84° |
| 2026-04-22 19:52 | 34.40793 | 15.85967 | 40941 ft | 517 kts | 84° |
| 2026-04-22 19:52 | 34.41307 | 15.94647 | 40942 ft | 518 kts | 84° |
| 2026-04-22 19:53 | 34.41814 | 16.03267 | 40943 ft | 518 kts | 84° |
| 2026-04-22 19:53 | 34.42316 | 16.11934 | 40946 ft | 517 kts | 84° |
| 2026-04-22 19:54 | 34.42810 | 16.20590 | 40935 ft | 517 kts | 84° |
| 2026-04-22 19:54 | 34.43299 | 16.29215 | 40945 ft | 517 kts | 84° |
| 2026-04-22 19:55 | 34.43784 | 16.37926 | 40938 ft | 518 kts | 84° |
| 2026-04-22 19:55 | 34.44260 | 16.46589 | 40942 ft | 518 kts | 84° |
| 2026-04-22 19:56 | 34.44733 | 16.55270 | 40942 ft | 519 kts | 84° |
| 2026-04-22 19:56 | 34.45200 | 16.63986 | 40940 ft | 518 kts | 84° |
| 2026-04-22 19:57 | 34.45660 | 16.72655 | 40943 ft | 519 kts | 85° |
| 2026-04-22 19:57 | 34.46112 | 16.81319 | 40949 ft | 519 kts | 85° |
| 2026-04-22 19:58 | 34.46558 | 16.90006 | 40947 ft | 520 kts | 85° |
| 2026-04-22 19:58 | 34.47004 | 16.98761 | 40948 ft | 520 kts | 85° |
| 2026-04-22 20:00 | 34.48501 | 17.29196 | 40965 ft | 520 kts | 84° |
| 2026-04-22 20:01 | 34.48915 | 17.37923 | 40967 ft | 520 kts | 84° |
| 2026-04-22 20:01 | 34.49321 | 17.46599 | 40966 ft | 519 kts | 84° |
| 2026-04-22 20:02 | 34.49723 | 17.55318 | 40965 ft | 519 kts | 84° |
| 2026-04-22 20:02 | 34.50120 | 17.64022 | 40964 ft | 519 kts | 84° |
| 2026-04-22 20:03 | 34.50511 | 17.72741 | 40963 ft | 519 kts | 85° |
| 2026-04-22 20:03 | 34.50894 | 17.81474 | 40963 ft | 519 kts | 85° |
| 2026-04-22 20:04 | 34.51271 | 17.90206 | 40964 ft | 519 kts | 85° |
| 2026-04-22 20:04 | 34.51642 | 17.98905 | 40963 ft | 519 kts | 85° |
| 2026-04-22 20:05 | 34.52004 | 18.07561 | 40962 ft | 519 kts | 85° |
| 2026-04-22 20:05 | 34.52364 | 18.16287 | 40960 ft | 519 kts | 85° |
| 2026-04-22 20:06 | 34.52718 | 18.25025 | 40960 ft | 519 kts | 85° |
| 2026-04-22 20:06 | 34.53064 | 18.33751 | 40962 ft | 520 kts | 85° |
| 2026-04-22 20:07 | 34.53403 | 18.42455 | 40963 ft | 519 kts | 84° |
| 2026-04-22 20:07 | 34.53734 | 18.51164 | 40962 ft | 519 kts | 84° |
| 2026-04-22 20:08 | 34.54064 | 18.59851 | 40963 ft | 520 kts | 85° |
| 2026-04-22 20:08 | 34.54386 | 18.68590 | 40960 ft | 520 kts | 85° |
| 2026-04-22 20:09 | 34.54702 | 18.77318 | 40957 ft | 519 kts | 85° |
| 2026-04-22 20:09 | 34.55011 | 18.86036 | 40963 ft | 519 kts | 85° |
| 2026-04-22 20:10 | 34.55312 | 18.94757 | 40963 ft | 519 kts | 85° |
| 2026-04-22 20:10 | 34.55608 | 19.03486 | 40958 ft | 519 kts | 85° |
| 2026-04-22 20:11 | 34.55899 | 19.12178 | 40963 ft | 519 kts | 85° |
| 2026-04-22 20:11 | 34.56184 | 19.20863 | 40961 ft | 518 kts | 85° |
| 2026-04-22 20:12 | 34.56462 | 19.29616 | 40959 ft | 519 kts | 85° |
| 2026-04-22 20:12 | 34.56733 | 19.38319 | 40964 ft | 520 kts | 85° |
| 2026-04-22 20:13 | 34.56998 | 19.47036 | 40967 ft | 520 kts | 85° |
| 2026-04-22 20:13 | 34.57257 | 19.55779 | 40965 ft | 520 kts | 85° |
| 2026-04-22 20:14 | 34.57512 | 19.64542 | 40961 ft | 520 kts | 85° |
| 2026-04-22 20:14 | 34.57760 | 19.73232 | 40964 ft | 520 kts | 86° |
| 2026-04-22 20:15 | 34.58001 | 19.81996 | 40960 ft | 520 kts | 86° |
| 2026-04-22 20:15 | 34.58236 | 19.90744 | 40957 ft | 521 kts | 86° |
| 2026-04-22 20:16 | 34.58466 | 19.99503 | 40951 ft | 521 kts | 86° |
| 2026-04-22 20:16 | 34.58691 | 20.08271 | 40945 ft | 521 kts | 86° |
| 2026-04-22 20:17 | 34.58905 | 20.17002 | 40955 ft | 522 kts | 86° |
| 2026-04-22 20:17 | 34.59115 | 20.25783 | 40954 ft | 522 kts | 86° |
| 2026-04-22 20:18 | 34.59320 | 20.34560 | 40956 ft | 521 kts | 86° |
| 2026-04-22 20:18 | 34.59520 | 20.43334 | 40956 ft | 522 kts | 86° |
| 2026-04-22 20:19 | 34.59710 | 20.52064 | 40950 ft | 522 kts | 86° |
| 2026-04-22 20:19 | 34.59895 | 20.60833 | 40957 ft | 522 kts | 86° |
| 2026-04-22 20:20 | 34.60076 | 20.69646 | 40960 ft | 522 kts | 86° |
| 2026-04-22 20:20 | 34.60248 | 20.78393 | 40958 ft | 522 kts | 87° |
| 2026-04-22 20:21 | 34.60416 | 20.87180 | 40956 ft | 523 kts | 87° |
| 2026-04-22 20:21 | 34.60575 | 20.95982 | 40964 ft | 523 kts | 87° |
| 2026-04-22 20:22 | 34.60730 | 21.04765 | 40968 ft | 522 kts | 86° |
| 2026-04-22 20:22 | 34.60879 | 21.13556 | 40968 ft | 522 kts | 87° |
| 2026-04-22 20:23 | 34.61020 | 21.22346 | 40961 ft | 523 kts | 87° |
| 2026-04-22 20:23 | 34.61156 | 21.31144 | 40961 ft | 523 kts | 87° |
| 2026-04-22 20:24 | 34.61285 | 21.39907 | 40962 ft | 524 kts | 86° |
| 2026-04-22 20:24 | 34.61407 | 21.48722 | 40966 ft | 524 kts | 87° |
| 2026-04-22 20:25 | 34.61524 | 21.57492 | 40966 ft | 523 kts | 86° |
| 2026-04-22 20:25 | 34.61635 | 21.66337 | 40967 ft | 523 kts | 87° |
| 2026-04-22 20:26 | 34.61738 | 21.75098 | 40967 ft | 523 kts | 87° |
| 2026-04-22 20:26 | 34.61837 | 21.83926 | 40963 ft | 524 kts | 88° |
| 2026-04-22 20:27 | 34.61928 | 21.92741 | 40966 ft | 524 kts | 87° |
| 2026-04-22 20:27 | 34.62013 | 22.01556 | 40967 ft | 524 kts | 87° |
| 2026-04-22 20:28 | 34.62093 | 22.10372 | 40964 ft | 524 kts | 87° |
| 2026-04-22 20:28 | 34.62164 | 22.19194 | 40958 ft | 524 kts | 88° |
| 2026-04-22 20:29 | 34.62231 | 22.27968 | 40964 ft | 524 kts | 88° |
| 2026-04-22 20:29 | 34.62291 | 22.36822 | 40955 ft | 524 kts | 87° |
| 2026-04-22 20:30 | 34.62345 | 22.45610 | 40953 ft | 525 kts | 87° |
| 2026-04-22 20:30 | 34.62391 | 22.54446 | 40947 ft | 524 kts | 88° |
| 2026-04-22 20:31 | 34.62433 | 22.63257 | 40950 ft | 524 kts | 88° |
| 2026-04-22 20:31 | 34.62466 | 22.72065 | 40943 ft | 525 kts | 88° |
| 2026-04-22 20:32 | 34.62495 | 22.80907 | 40946 ft | 525 kts | 88° |
| 2026-04-22 20:32 | 34.62453 | 22.89777 | 40946 ft | 525 kts | 92° |
| 2026-04-22 20:33 | 34.61526 | 22.98497 | 40949 ft | 526 kts | 102° |
| 2026-04-22 20:33 | 34.59409 | 23.06981 | 40954 ft | 525 kts | 113° |
| 2026-04-22 20:34 | 34.56299 | 23.14881 | 40961 ft | 523 kts | 119° |
| 2026-04-22 20:34 | 34.52904 | 23.22721 | 40962 ft | 523 kts | 119° |
| 2026-04-22 20:35 | 34.49571 | 23.30468 | 40959 ft | 524 kts | 119° |
| 2026-04-22 20:35 | 34.46228 | 23.38287 | 40966 ft | 524 kts | 119° |
| 2026-04-22 20:36 | 34.42870 | 23.46143 | 40970 ft | 523 kts | 119° |
| 2026-04-22 20:36 | 34.39535 | 23.53933 | 40962 ft | 523 kts | 118° |
| 2026-04-22 20:37 | 34.36201 | 23.61704 | 40959 ft | 524 kts | 119° |
| 2026-04-22 20:37 | 34.32850 | 23.69495 | 40961 ft | 523 kts | 120° |
| 2026-04-22 20:38 | 34.29491 | 23.77289 | 40960 ft | 523 kts | 120° |
| 2026-04-22 20:38 | 34.26143 | 23.85043 | 40960 ft | 522 kts | 120° |
| 2026-04-22 20:39 | 34.22778 | 23.92811 | 40965 ft | 522 kts | 120° |
| 2026-04-22 20:39 | 34.19411 | 24.00570 | 40954 ft | 522 kts | 120° |
| 2026-04-22 20:40 | 34.16057 | 24.08280 | 40952 ft | 523 kts | 120° |
| 2026-04-22 20:40 | 34.12687 | 24.16014 | 40955 ft | 522 kts | 120° |
| 2026-04-22 20:41 | 34.09301 | 24.23764 | 40956 ft | 523 kts | 120° |
| 2026-04-22 20:41 | 34.05921 | 24.31485 | 40957 ft | 523 kts | 120° |
| 2026-04-22 20:42 | 34.02325 | 24.39085 | 40962 ft | 521 kts | 126° |
| 2026-04-22 20:42 | 33.98087 | 24.46047 | 40961 ft | 517 kts | 133° |
| 2026-04-22 20:43 | 33.93180 | 24.52334 | 40966 ft | 512 kts | 141° |
| 2026-04-22 20:43 | 33.87893 | 24.58022 | 40968 ft | 510 kts | 142° |
| 2026-04-22 20:44 | 33.82574 | 24.63682 | 40964 ft | 511 kts | 142° |
| 2026-04-22 20:44 | 33.77277 | 24.69339 | 40982 ft | 510 kts | 143° |
| 2026-04-22 20:45 | 33.71986 | 24.74996 | 40988 ft | 510 kts | 143° |
| 2026-04-22 20:45 | 33.66696 | 24.80645 | 40987 ft | 509 kts | 143° |
| 2026-04-22 20:46 | 33.58776 | 24.89086 | 40995 ft | 509 kts | 143° |
| 2026-04-22 20:46 | 33.53508 | 24.94689 | 40991 ft | 508 kts | 143° |
| 2026-04-22 20:47 | 33.48225 | 25.00298 | 40996 ft | 508 kts | 143° |
| 2026-04-22 20:47 | 33.42948 | 25.05891 | 40998 ft | 507 kts | 143° |
| 2026-04-22 20:48 | 33.37653 | 25.11494 | 41004 ft | 507 kts | 143° |
| 2026-04-22 20:48 | 33.32400 | 25.17044 | 41007 ft | 506 kts | 143° |
| 2026-04-22 20:49 | 33.27129 | 25.22602 | 40999 ft | 506 kts | 143° |
| 2026-04-22 20:49 | 33.21849 | 25.28163 | 40992 ft | 506 kts | 143° |
| 2026-04-22 20:50 | 33.16599 | 25.33679 | 40993 ft | 506 kts | 143° |
| 2026-04-22 20:50 | 33.11311 | 25.39229 | 40996 ft | 506 kts | 143° |
| 2026-04-22 20:51 | 33.06043 | 25.44748 | 41000 ft | 506 kts | 143° |
| 2026-04-22 20:51 | 33.00763 | 25.50271 | 41001 ft | 505 kts | 143° |
| 2026-04-22 20:52 | 32.95491 | 25.55776 | 40993 ft | 505 kts | 143° |
| 2026-04-22 20:52 | 32.90210 | 25.61280 | 40989 ft | 505 kts | 143° |
| 2026-04-22 20:53 | 32.84923 | 25.66779 | 40986 ft | 505 kts | 144° |
| 2026-04-22 20:53 | 32.79651 | 25.72256 | 40986 ft | 506 kts | 144° |
| 2026-04-22 20:54 | 32.74334 | 25.77772 | 40986 ft | 505 kts | 144° |
| 2026-04-22 20:54 | 32.69050 | 25.83245 | 40993 ft | 505 kts | 144° |
| 2026-04-22 20:55 | 32.63782 | 25.88693 | 40995 ft | 504 kts | 144° |
| 2026-04-22 20:55 | 32.58480 | 25.94165 | 40993 ft | 504 kts | 144° |
| 2026-04-22 20:56 | 32.53217 | 25.99588 | 40994 ft | 504 kts | 144° |
| 2026-04-22 20:56 | 32.47933 | 26.05026 | 40989 ft | 504 kts | 144° |
| 2026-04-22 20:57 | 32.42645 | 26.10456 | 40989 ft | 504 kts | 144° |
| 2026-04-22 20:57 | 32.37342 | 26.15896 | 40997 ft | 504 kts | 144° |
| 2026-04-22 20:58 | 32.32057 | 26.21309 | 40997 ft | 503 kts | 144° |
| 2026-04-22 20:58 | 32.26769 | 26.26714 | 40997 ft | 503 kts | 144° |
| 2026-04-22 20:59 | 32.21477 | 26.32115 | 40995 ft | 504 kts | 144° |
| 2026-04-22 20:59 | 32.16167 | 26.37524 | 40997 ft | 504 kts | 144° |
| 2026-04-22 21:00 | 32.10880 | 26.42903 | 40996 ft | 504 kts | 144° |
| 2026-04-22 21:00 | 32.05567 | 26.48300 | 41005 ft | 504 kts | 144° |
| 2026-04-22 21:01 | 32.00290 | 26.53652 | 41006 ft | 503 kts | 144° |
| 2026-04-22 21:01 | 31.94998 | 26.59010 | 40998 ft | 503 kts | 144° |
| 2026-04-22 21:02 | 31.89691 | 26.64375 | 40988 ft | 503 kts | 144° |
| 2026-04-22 21:02 | 31.84385 | 26.69732 | 40992 ft | 502 kts | 144° |
| 2026-04-22 21:03 | 31.79098 | 26.75061 | 41000 ft | 502 kts | 145° |
| 2026-04-22 21:03 | 31.73813 | 26.80380 | 40996 ft | 502 kts | 145° |
| 2026-04-22 21:04 | 31.68505 | 26.85711 | 40995 ft | 502 kts | 145° |
| 2026-04-22 21:04 | 31.63189 | 26.91043 | 40988 ft | 502 kts | 145° |
| 2026-04-22 21:05 | 31.57926 | 26.96317 | 40983 ft | 501 kts | 145° |
| 2026-04-22 21:05 | 31.52604 | 27.01638 | 41005 ft | 501 kts | 145° |
| 2026-04-22 21:06 | 31.47308 | 27.06929 | 40997 ft | 501 kts | 145° |
| 2026-04-22 21:06 | 31.42032 | 27.12191 | 40999 ft | 501 kts | 144° |
| 2026-04-22 21:07 | 31.36701 | 27.17442 | 41006 ft | 499 kts | 147° |
| 2026-04-22 21:07 | 31.31055 | 27.22122 | 41000 ft | 493 kts | 153° |
| 2026-04-22 21:08 | 31.25115 | 27.25953 | 41006 ft | 487 kts | 160° |
| 2026-04-22 21:08 | 31.18953 | 27.29284 | 41000 ft | 488 kts | 161° |
| 2026-04-22 21:09 | 31.12783 | 27.32615 | 41008 ft | 487 kts | 161° |
| 2026-04-22 21:09 | 31.06647 | 27.35939 | 41010 ft | 487 kts | 161° |
| 2026-04-22 21:10 | 31.00525 | 27.39253 | 41012 ft | 486 kts | 161° |
| 2026-04-22 21:10 | 30.94471 | 27.42912 | 40999 ft | 491 kts | 155° |
| 2026-04-22 21:11 | 30.88772 | 27.47338 | 40993 ft | 496 kts | 148° |
| 2026-04-22 21:11 | 30.83352 | 27.52336 | 41013 ft | 498 kts | 146° |
| 2026-04-22 21:12 | 30.77938 | 27.57378 | 40997 ft | 499 kts | 146° |
| 2026-04-22 21:12 | 30.72503 | 27.62418 | 41005 ft | 500 kts | 146° |
| 2026-04-22 21:13 | 30.67069 | 27.67442 | 40997 ft | 498 kts | 147° |
| 2026-04-22 21:13 | 30.61638 | 27.72452 | 41014 ft | 499 kts | 147° |
| 2026-04-22 21:14 | 30.56230 | 27.77435 | 40996 ft | 498 kts | 147° |
| 2026-04-22 21:14 | 30.50785 | 27.82441 | 41007 ft | 499 kts | 147° |
| 2026-04-22 21:15 | 30.45360 | 27.87422 | 40994 ft | 498 kts | 147° |
| 2026-04-22 21:15 | 30.39911 | 27.92418 | 40973 ft | 498 kts | 147° |
| 2026-04-22 21:16 | 30.34490 | 27.97382 | 40981 ft | 498 kts | 147° |
| 2026-04-22 21:16 | 30.29048 | 28.02359 | 40970 ft | 499 kts | 147° |
| 2026-04-22 21:17 | 30.23587 | 28.07346 | 40953 ft | 500 kts | 147° |
| 2026-04-22 21:17 | 30.18138 | 28.12314 | 40960 ft | 500 kts | 147° |
| 2026-04-22 21:18 | 30.12661 | 28.17300 | 40951 ft | 500 kts | 147° |
| 2026-04-22 21:18 | 30.07222 | 28.22246 | 40955 ft | 500 kts | 147° |
| 2026-04-22 21:19 | 30.01784 | 28.27184 | 40964 ft | 499 kts | 147° |
| 2026-04-22 21:19 | 29.96338 | 28.32123 | 40963 ft | 499 kts | 147° |
| 2026-04-22 21:20 | 29.90889 | 28.37106 | 40969 ft | 502 kts | 145° |
| 2026-04-22 21:20 | 29.85773 | 28.42621 | 40973 ft | 508 kts | 139° |
| 2026-04-22 21:21 | 29.81187 | 28.48842 | 40978 ft | 513 kts | 132° |
| 2026-04-22 21:21 | 29.76841 | 28.55395 | 40982 ft | 513 kts | 132° |
| 2026-04-22 21:22 | 29.72549 | 28.61848 | 40616 ft | 512 kts | 132° |
| 2026-04-22 21:22 | 29.70373 | 28.65095 | 39993 ft | 513 kts | 133° |
| 2026-04-22 21:22 | 29.68171 | 28.68373 | 39233 ft | 516 kts | 133° |
| 2026-04-22 21:23 | 29.65972 | 28.71643 | 38390 ft | 518 kts | 132° |
| 2026-04-22 21:23 | 29.63769 | 28.74916 | 37569 ft | 519 kts | 132° |
| 2026-04-22 21:23 | 29.61570 | 28.78177 | 36750 ft | 521 kts | 132° |
| 2026-04-22 21:23 | 29.59334 | 28.81494 | 35938 ft | 521 kts | 132° |
| 2026-04-22 21:24 | 29.57130 | 28.84765 | 35068 ft | 520 kts | 131° |
| 2026-04-22 21:24 | 29.54925 | 28.88033 | 33983 ft | 522 kts | 131° |
| 2026-04-22 21:24 | 29.52718 | 28.91302 | 32828 ft | 522 kts | 131° |
| 2026-04-22 21:24 | 29.50527 | 28.94546 | 32150 ft | 511 kts | 131° |
| 2026-04-22 21:25 | 29.48374 | 28.97736 | 31544 ft | 502 kts | 131° |
| 2026-04-22 21:25 | 29.46254 | 29.00869 | 30908 ft | 498 kts | 130° |
| 2026-04-22 21:25 | 29.44241 | 29.04055 | 30302 ft | 500 kts | 123° |
| 2026-04-22 21:25 | 29.42711 | 29.07619 | 29631 ft | 504 kts | 111° |
| 2026-04-22 21:26 | 29.41783 | 29.11500 | 28973 ft | 504 kts | 99° |
| 2026-04-22 21:26 | 29.41491 | 29.15486 | 28293 ft | 504 kts | 90° |
| 2026-04-22 21:26 | 29.41462 | 29.19477 | 27638 ft | 503 kts | 89° |
| 2026-04-22 21:26 | 29.41467 | 29.23506 | 27196 ft | 507 kts | 89° |
| 2026-04-22 21:27 | 29.41466 | 29.27524 | 26674 ft | 504 kts | 89° |
| 2026-04-22 21:27 | 29.41448 | 29.31512 | 26192 ft | 499 kts | 89° |
| 2026-04-22 21:27 | 29.41418 | 29.35412 | 25650 ft | 495 kts | 89° |
| 2026-04-22 21:27 | 29.41379 | 29.39328 | 25148 ft | 490 kts | 90° |
| 2026-04-22 21:28 | 29.41334 | 29.43240 | 24679 ft | 484 kts | 90° |
| 2026-04-22 21:28 | 29.41284 | 29.47058 | 24225 ft | 478 kts | 90° |
| 2026-04-22 21:28 | 29.41235 | 29.50798 | 23775 ft | 473 kts | 90° |
| 2026-04-22 21:28 | 29.41184 | 29.54584 | 23325 ft | 468 kts | 90° |
| 2026-04-22 21:29 | 29.41133 | 29.58263 | 22884 ft | 463 kts | 90° |
| 2026-04-22 21:29 | 29.41082 | 29.61921 | 22445 ft | 458 kts | 90° |
| 2026-04-22 21:29 | 29.41030 | 29.65553 | 22004 ft | 454 kts | 90° |
| 2026-04-22 21:29 | 29.40977 | 29.69120 | 21567 ft | 449 kts | 90° |
| 2026-04-22 21:30 | 29.40924 | 29.72701 | 21117 ft | 445 kts | 90° |
| 2026-04-22 21:30 | 29.40869 | 29.76299 | 20672 ft | 441 kts | 90° |
| 2026-04-22 21:30 | 29.40815 | 29.79811 | 20231 ft | 437 kts | 90° |
| 2026-04-22 21:30 | 29.40760 | 29.83273 | 19790 ft | 434 kts | 90° |
| 2026-04-22 21:31 | 29.40705 | 29.86698 | 19352 ft | 431 kts | 90° |
| 2026-04-22 21:31 | 29.40650 | 29.90121 | 18917 ft | 427 kts | 91° |
| 2026-04-22 21:31 | 29.40594 | 29.93468 | 18486 ft | 424 kts | 91° |
| 2026-04-22 21:31 | 29.40538 | 29.96840 | 18048 ft | 421 kts | 91° |
| 2026-04-22 21:32 | 29.40481 | 30.00181 | 17619 ft | 418 kts | 91° |
| 2026-04-22 21:32 | 29.40423 | 30.03483 | 17185 ft | 415 kts | 91° |
| 2026-04-22 21:32 | 29.40365 | 30.06770 | 16747 ft | 412 kts | 90° |
| 2026-04-22 21:32 | 29.40307 | 30.10041 | 16302 ft | 410 kts | 91° |
| 2026-04-22 21:33 | 29.40248 | 30.13304 | 15866 ft | 407 kts | 91° |
| 2026-04-22 21:33 | 29.40190 | 30.16484 | 15449 ft | 403 kts | 90° |
| 2026-04-22 21:33 | 29.40131 | 30.19679 | 15057 ft | 399 kts | 90° |
| 2026-04-22 21:33 | 29.40072 | 30.22873 | 14731 ft | 405 kts | 90° |
| 2026-04-22 21:34 | 29.40011 | 30.26104 | 14413 ft | 407 kts | 90° |
| 2026-04-22 21:34 | 29.39948 | 30.29352 | 14096 ft | 405 kts | 90° |
| 2026-04-22 21:34 | 29.39885 | 30.32559 | 13759 ft | 402 kts | 90° |
| 2026-04-22 21:34 | 29.39830 | 30.35728 | 13382 ft | 400 kts | 89° |
| 2026-04-22 21:35 | 29.40214 | 30.38868 | 12969 ft | 396 kts | 72° |
| 2026-04-22 21:35 | 29.41346 | 30.41668 | 12516 ft | 391 kts | 56° |
| 2026-04-22 21:35 | 29.43011 | 30.44148 | 12047 ft | 387 kts | 49° |
| 2026-04-22 21:35 | 29.44701 | 30.46523 | 11620 ft | 383 kts | 49° |
| 2026-04-22 21:36 | 29.46357 | 30.48852 | 11195 ft | 379 kts | 49° |
| 2026-04-22 21:36 | 29.48007 | 30.51189 | 10803 ft | 374 kts | 50° |
| 2026-04-22 21:36 | 29.49625 | 30.53499 | 10478 ft | 367 kts | 50° |
| 2026-04-22 21:36 | 29.51205 | 30.55765 | 10250 ft | 357 kts | 50° |
| 2026-04-22 21:37 | 29.53227 | 30.58675 | 10172 ft | 339 kts | 50° |
| 2026-04-22 21:37 | 29.54181 | 30.60053 | 10109 ft | 326 kts | 50° |
| 2026-04-22 21:37 | 29.55545 | 30.62024 | 10050 ft | 298 kts | 50° |
| 2026-04-22 21:37 | 29.56791 | 30.63825 | 10081 ft | 284 kts | 49° |
| 2026-04-22 21:38 | 29.58010 | 30.65586 | 10047 ft | 277 kts | 50° |
| 2026-04-22 21:38 | 29.59208 | 30.67317 | 10022 ft | 273 kts | 50° |
| 2026-04-22 21:38 | 29.60376 | 30.69005 | 9782 ft | 274 kts | 50° |
| 2026-04-22 21:38 | 29.61570 | 30.70731 | 9497 ft | 274 kts | 50° |
| 2026-04-22 21:39 | 29.62761 | 30.72455 | 9075 ft | 280 kts | 50° |
| 2026-04-22 21:39 | 29.63982 | 30.74222 | 8667 ft | 284 kts | 50° |
| 2026-04-22 21:39 | 29.65211 | 30.76003 | 8398 ft | 282 kts | 50° |
| 2026-04-22 21:39 | 29.66424 | 30.77765 | 8134 ft | 281 kts | 50° |
| 2026-04-22 21:40 | 29.67619 | 30.79498 | 7871 ft | 279 kts | 49° |
| 2026-04-22 21:40 | 29.68822 | 30.81245 | 7597 ft | 279 kts | 50° |
| 2026-04-22 21:40 | 29.70037 | 30.83007 | 7320 ft | 278 kts | 49° |
| 2026-04-22 21:40 | 29.71231 | 30.84743 | 7064 ft | 276 kts | 49° |
| 2026-04-22 21:41 | 29.72404 | 30.86446 | 6816 ft | 274 kts | 49° |
| 2026-04-22 21:41 | 29.73586 | 30.88163 | 6560 ft | 273 kts | 49° |
| 2026-04-22 21:41 | 29.74766 | 30.89881 | 6307 ft | 271 kts | 49° |
| 2026-04-22 21:41 | 29.75932 | 30.91579 | 6054 ft | 270 kts | 49° |
| 2026-04-22 21:42 | 29.77087 | 30.93260 | 5806 ft | 268 kts | 49° |
| 2026-04-22 21:42 | 29.78235 | 30.94931 | 5665 ft | 265 kts | 49° |
| 2026-04-22 21:42 | 29.79387 | 30.96609 | 5517 ft | 266 kts | 49° |
| 2026-04-22 21:42 | 29.80522 | 30.98261 | 5307 ft | 266 kts | 49° |
| 2026-04-22 21:43 | 29.81675 | 30.99942 | 5059 ft | 265 kts | 49° |
| 2026-04-22 21:43 | 29.82814 | 31.01602 | 4799 ft | 264 kts | 49° |
| 2026-04-22 21:43 | 29.83843 | 31.03344 | 4466 ft | 267 kts | 61° |
| 2026-04-22 21:43 | 29.84597 | 31.05320 | 4052 ft | 268 kts | 65° |
| 2026-04-22 21:44 | 29.85400 | 31.07201 | 3790 ft | 259 kts | 55° |
| 2026-04-22 21:44 | 29.86456 | 31.08849 | 3527 ft | 257 kts | 47° |
| 2026-04-22 21:44 | 29.87659 | 31.10375 | 3272 ft | 255 kts | 45° |
| 2026-04-22 21:44 | 29.88871 | 31.11876 | 3022 ft | 255 kts | 45° |
| 2026-04-22 21:45 | 29.90057 | 31.13376 | 2775 ft | 254 kts | 46° |
| 2026-04-22 21:45 | 29.91208 | 31.14869 | 2595 ft | 239 kts | 47° |
| 2026-04-22 21:45 | 29.92251 | 31.16247 | 2590 ft | 217 kts | 47° |
| 2026-04-22 21:45 | 29.93198 | 31.17510 | 2599 ft | 198 kts | 47° |
| 2026-04-22 21:46 | 29.94070 | 31.18677 | 2642 ft | 185 kts | 47° |
| 2026-04-22 21:46 | 29.94909 | 31.19799 | 2638 ft | 185 kts | 47° |
| 2026-04-22 21:46 | 29.95755 | 31.20931 | 2616 ft | 185 kts | 47° |
| 2026-04-22 21:46 | 29.96590 | 31.22047 | 2596 ft | 185 kts | 47° |
| 2026-04-22 21:47 | 29.97441 | 31.23184 | 2566 ft | 185 kts | 47° |
| 2026-04-22 21:47 | 29.98288 | 31.24314 | 2498 ft | 185 kts | 47° |
| 2026-04-22 21:47 | 29.99127 | 31.25433 | 2469 ft | 182 kts | 47° |
| 2026-04-22 21:47 | 29.99929 | 31.26502 | 2455 ft | 174 kts | 47° |
| 2026-04-22 21:48 | 30.00724 | 31.27559 | 2466 ft | 176 kts | 47° |
| 2026-04-22 21:48 | 30.01531 | 31.28632 | 2465 ft | 175 kts | 47° |
| 2026-04-22 21:48 | 30.02288 | 31.29640 | 2464 ft | 158 kts | 47° |
| 2026-04-22 21:48 | 30.02967 | 31.30544 | 2411 ft | 140 kts | 46° |
| 2026-04-22 21:49 | 30.03592 | 31.31372 | 2264 ft | 135 kts | 46° |
| 2026-04-22 21:49 | 30.04211 | 31.32181 | 2080 ft | 134 kts | 47° |
| 2026-04-22 21:49 | 30.04845 | 31.32984 | 1881 ft | 133 kts | 46° |
| 2026-04-22 21:49 | 30.05458 | 31.33775 | 1682 ft | 133 kts | 48° |
| 2026-04-22 21:50 | 30.06067 | 31.34589 | 1522 ft | 132 kts | 48° |
| 2026-04-22 21:50 | 30.06663 | 31.35401 | 1372 ft | 132 kts | 49° |
| 2026-04-22 21:50 | 30.07265 | 31.36222 | 1199 ft | 132 kts | 49° |
| 2026-04-22 21:50 | 30.07865 | 31.37031 | 1024 ft | 132 kts | 48° |
| 2026-04-22 21:51 | 30.08463 | 31.37821 | 834 ft | 131 kts | 48° |
| 2026-04-22 21:51 | 30.09070 | 31.38624 | 661 ft | 131 kts | 48° |
| 2026-04-22 21:51 | 30.09662 | 31.39413 | 496 ft | 130 kts | 48° |
| 2026-04-22 21:52 | 30.10756 | 31.40862 | 394 ft | 88 kts | 48° |
| 2026-04-22 21:52 | 30.11042 | 31.41240 | 394 ft | 37 kts | 49° |
| 2026-04-22 21:52 | 30.11196 | 31.41439 | 394 ft | 29 kts | 44° |
| 2026-04-22 21:52 | 30.11350 | 31.41563 | 394 ft | 22 kts | 25° |
| 2026-04-22 21:53 | 30.11458 | 31.41612 | 394 ft | 15 kts | 20° |
| 2026-04-22 21:53 | 30.11554 | 31.41614 | 394 ft | 10 kts | 329° |
| 2026-04-22 21:53 | 30.11557 | 31.41541 | 394 ft | 11 kts | 236° |
| 2026-04-22 21:53 | 30.11504 | 31.41464 | 394 ft | 12 kts | 229° |
| 2026-04-22 21:54 | 30.11441 | 31.41381 | 394 ft | 15 kts | 229° |
| 2026-04-22 21:54 | 30.11366 | 31.41283 | 394 ft | 17 kts | 229° |
| 2026-04-22 21:54 | 30.11279 | 31.41169 | 394 ft | 20 kts | 229° |
| 2026-04-22 21:54 | 30.11186 | 31.41046 | 394 ft | 20 kts | 229° |
| 2026-04-22 21:55 | 30.11092 | 31.40921 | 394 ft | 19 kts | 229° |
| 2026-04-22 21:55 | 30.11068 | 31.40827 | 394 ft | 12 kts | 296° |
| 2026-04-22 21:55 | 30.11067 | 31.40733 | 394 ft | 13 kts | 239° |
| 2026-04-22 21:55 | 30.11003 | 31.40644 | 394 ft | 16 kts | 228° |
| 2026-04-22 21:56 | 30.10925 | 31.40539 | 394 ft | 15 kts | 231° |
| 2026-04-22 21:56 | 30.10919 | 31.40441 | 394 ft | 12 kts | 286° |
| 2026-04-22 21:56 | 30.10949 | 31.40351 | 394 ft | 12 kts | 291° |
| 2026-04-22 21:56 | 30.10991 | 31.40297 | 394 ft | 9 kts | 354° |
| 2026-04-22 21:57 | 30.11039 | 31.40308 | 394 ft | 4 kts | 17° |
| 2026-04-22 21:57 | 30.11054 | 31.40313 | 394 ft | 2 kts | 17° |
| 2026-04-22 21:57 | 30.11061 | 31.40316 | 394 ft | 0 kts | 17° |